Time;durP1;ratioP1;P1;durP2;ratioP2;P2;SDS_P1;SDS_P2;PMS_P1;PMS_P2;Temp;Humidity;BMP_temperature;BMP_pressure;BME280_temperature;BME280_humidity;BME280_pressure;Samples;Min_cycle;Max_cycle;Signal;HPM_P1;HPM_P2
2022/03/11 16:27:54;;;;;;;;;;;14.90;34.20;;;;;;5040602;28;20794;-66
2022/03/11 16:30:20;;;;;;;;;;;9.50;20.10;;;;;;5020570;28;19913;-66
2022/03/11 16:32:45;;;;;;;;;;;7.80;22.30;;;;;;5021754;28;20027;-67
2022/03/11 16:35:11;;;;;;;;;;;7.40;23.70;;;;;;5015315;28;19917;-67
2022/03/11 16:37:36;;;;;;;;;;;7.30;23.40;;;;;;5015266;28;20009;-67
2022/03/11 16:40:03;;;;;;;;;;;7.20;23.50;;;;;;5018867;28;19913;-65
2022/03/11 16:42:28;;;;;;;;;;;7.20;23.70;;;;;;5019067;28;20397;-66
2022/03/11 16:44:54;;;;;;;;;;;7.20;23.80;;;;;;5015844;28;19910;-66
2022/03/11 16:47:20;;;;;;;;;;;7.10;24.20;;;;;;5026227;28;20361;-66
2022/03/11 16:49:46;;;;;;;;;;;7.00;24.10;;;;;;5022063;28;19914;-68
2022/03/11 16:52:12;;;;;;;;;;;7.00;24.20;;;;;;5019697;28;19917;-64
2022/03/11 16:54:38;;;;;;;;;;;6.90;24.30;;;;;;5021901;28;20409;-66
2022/03/11 17:51:44;;;;;;;;;;;;;;;;;;5054201;28;20304;-55
2022/03/11 17:54:09;;;;;;;;;;;21.30;29.80;;;;;;5041174;28;19921;-55
2022/03/11 17:56:35;;;;;;;;;;;21.30;29.90;;;;;;5042818;28;20300;-53
2022/03/11 17:59:02;;;;;;;;;;;21.30;30.20;;;;;;5046468;28;19996;-53
2022/03/11 18:01:27;;;;;;;;;;;21.30;30.30;;;;;;5042387;28;19917;-51
2022/03/11 18:03:53;;;;;;;;;;;21.20;30.30;;;;;;5069575;22;19979;-53
2022/03/11 18:06:18;;;;;;;;;;;21.20;30.40;;;;;;5051594;28;20365;-55
2022/03/11 18:08:44;;;;;;;;;;;21.20;30.30;;;;;;5059769;28;19944;-58
2022/03/11 18:11:10;;;;;;;;;;;21.20;30.50;;;;;;5050840;28;20316;-53
2022/03/11 18:13:35;;;;;;;;;;;21.20;30.30;;;;;;5044865;28;19996;-55
2022/03/11 18:16:01;;;;;;;;;;;21.20;30.40;;;;;;5043957;28;20028;-52
2022/03/11 18:18:27;;;;;;;;;;;21.20;30.60;;;;;;5042041;28;19925;-57
2022/03/11 18:20:53;;;;;;;;;;;21.20;31.00;;;;;;5040902;28;19913;-59
2022/03/11 18:23:19;;;;;;;;;;;21.20;30.70;;;;;;5040855;28;19921;-56
2022/03/11 18:25:45;;;;;;;;;;;21.20;30.80;;;;;;5043232;28;19913;-54
2022/03/11 18:28:10;;;;;;;;;;;21.20;31.20;;;;;;5046517;28;19974;-52
2022/03/11 18:30:36;;;;;;;;;;;21.20;31.50;;;;;;5026320;28;19925;-51
2022/03/11 18:33:02;;;;;;;;;;;21.20;32.60;;;;;;5048107;28;20051;-55
2022/03/11 18:35:28;;;;;;;;;;;21.20;31.70;;;;;;5043377;28;19961;-53
2022/03/11 18:37:53;;;;;;;;;;;21.30;33.00;;;;;;5049341;28;19971;-52
2022/03/11 18:40:19;;;;;;;;;;;;;;;;;;5043329;28;19913;-54
2022/03/11 18:42:45;;;;;;;;;;;21.50;35.90;;;;;;5046896;28;20434;-51
2022/03/11 18:45:11;;;;;;;;;;;21.60;36.00;;;;;;5044005;28;19909;-57
2022/03/11 18:47:36;;;;;;;;;;;21.70;36.00;;;;;;5044907;28;20005;-48
2022/03/11 18:50:03;;;;;;;;;;;21.80;34.50;;;;;;5042721;28;19975;-59
2022/03/11 18:52:28;;;;;;;;;;;21.80;34.20;;;;;;5041300;28;20343;-58
2022/03/11 18:54:54;;;;;;;;;;;21.90;34.00;;;;;;5044912;28;19909;-47
2022/03/11 18:57:19;;;;;;;;;;;21.90;34.10;;;;;;5041813;28;19968;-51
2022/03/11 18:59:45;;;;;;;;;;;21.80;35.00;;;;;;5042828;28;19920;-49
2022/03/11 19:02:11;;;;;;;;;;;21.80;34.80;;;;;;5029872;28;19955;-54
2022/03/11 19:04:36;;;;;;;;;;;21.80;35.30;;;;;;5027894;28;20399;-48
2022/03/11 19:07:02;;;;;;;;;;;21.70;35.10;;;;;;5032736;28;19955;-48
2022/03/11 19:09:28;;;;;;;;;;;21.60;35.20;;;;;;5031487;28;20215;-46
2022/03/11 19:11:55;;;;;;;14.80;5.87;;;21.60;34.60;;;;;;5026540;28;20456;-58
2022/03/11 19:14:21;;;;;;;6.75;2.50;;;21.60;35.40;;;;;;5027214;28;20420;-53
2022/03/11 19:16:46;;;;;;;;;;;21.80;35.90;;;;;;5032297;28;19964;-56
2022/03/11 19:19:12;;;;;;;;;;;21.90;35.90;;;;;;5031128;28;19917;-57
2022/03/11 19:21:37;;;;;;;;;;;22.00;35.70;;;;;;5033832;28;19948;-54
2022/03/11 19:24:03;;;;;;;;;;;22.00;35.90;;;;;;5029948;28;19913;-54
2022/03/11 19:26:30;;;;;;;;;;;22.00;35.70;;;;;;5031581;28;19920;-56
2022/03/11 19:28:56;;;;;;;;;;;22.10;36.50;;;;;;5029221;28;20315;-55
2022/03/11 19:31:24;;;;;;;;;;;22.10;36.90;;;;;;5030046;28;19924;-53
2022/03/11 19:33:50;;;;;;;;;;;22.00;36.80;;;;;;5028831;28;19913;-53
2022/03/11 19:36:16;;;;;;;;;;;22.00;37.10;;;;;;5028609;28;19967;-53
2022/03/11 19:38:41;;;;;;;;;;;22.00;35.20;;;;;;5031006;28;19913;-51
2022/03/11 19:41:08;;;;;;;;;;;21.30;29.70;;;;;;5033276;28;19980;-53
2022/03/11 19:43:34;;;;;;;;;;;21.30;34.00;;;;;;5027383;28;20004;-54
2022/03/11 19:46:00;;;;;;;;;;;21.50;36.20;;;;;;5030983;28;20313;-52
2022/03/11 19:48:26;;;;;;;;;;;21.60;37.70;;;;;;5029369;28;19925;-56
2022/03/11 19:50:52;;;;;;;;;;;21.70;36.70;;;;;;5031849;28;20255;-52
2022/03/11 19:53:18;;;;;;;;;;;21.80;35.80;;;;;;5027431;28;19917;-54
2022/03/11 19:55:46;;;;;;;;;;;21.80;36.00;;;;;;5026769;28;20302;-53
2022/03/11 19:58:15;;;;;;;;;;;21.80;36.50;;;;;;5022500;28;20230;-51
2022/03/11 20:00:41;;;;;;;;;;;21.80;36.30;;;;;;5032057;28;19935;-52
2022/03/11 20:03:07;;;;;;;;;;;21.90;35.50;;;;;;5029888;28;19921;-53
2022/03/11 20:05:32;;;;;;;;;;;21.90;35.40;;;;;;5032259;28;19917;-52
2022/03/11 20:07:59;;;;;;;;;;;21.90;35.30;;;;;;5028214;28;20293;-51
2022/03/11 20:10:25;;;;;;;;;;;22.00;35.20;;;;;;5026802;28;19920;-51
2022/03/11 20:12:51;;;;;;;;;;;22.00;35.10;;;;;;5013887;28;19909;-51
2022/03/11 20:15:17;;;;;;;;;;;21.90;34.80;;;;;;5025395;28;19996;-53
2022/03/11 20:17:44;;;;;;;;;;;22.00;34.90;;;;;;5029402;28;20008;-51
2022/03/11 20:20:12;;;;;;;;;;;21.90;34.50;;;;;;5027126;28;19916;-50
2022/03/11 20:22:38;;;;;;;;;;;21.90;34.50;;;;;;5031374;28;19952;-52
2022/03/11 20:25:04;;;;;;;;;;;22.00;34.50;;;;;;5026978;28;19959;-55
2022/03/11 20:27:31;;;;;;;12.40;4.87;;;22.00;34.40;;;;;;5022929;28;20443;-57
2022/03/11 20:29:57;;;;;;;17.73;5.97;;;22.10;34.40;;;;;;5024263;28;20408;-52
2022/03/11 20:32:22;;;;;;;12.48;4.85;;;22.10;34.00;;;;;;5031633;28;20060;-55
2022/03/11 20:34:48;;;;;;;13.82;4.72;;;22.00;34.10;;;;;;5034733;28;20033;-52
2022/03/11 20:37:14;;;;;;;13.07;6.03;;;22.00;34.00;;;;;;5032199;28;20026;-55
2022/03/11 20:39:41;;;;;;;13.02;5.53;;;21.90;33.90;;;;;;5031281;28;20025;-52
2022/03/11 20:42:07;;;;;;;14.93;5.07;;;21.90;34.00;;;;;;5028479;28;20179;-53
2022/03/11 20:44:34;;;;;;;11.23;5.18;;;21.90;34.40;;;;;;5014024;28;20029;-52
2022/03/11 20:47:01;;;;;;;9.07;4.65;;;21.80;34.40;;;;;;5031493;28;20036;-54
2022/03/11 20:49:28;;;;;;;10.32;5.35;;;21.80;34.40;;;;;;5029914;28;20060;-54
2022/03/11 20:51:54;;;;;;;14.10;4.90;;;21.80;34.30;;;;;;5024727;28;20469;-53
2022/03/11 20:54:20;;;;;;;15.65;6.07;;;21.70;34.40;;;;;;5031505;28;20041;-53
2022/03/11 20:56:46;;;;;;;21.52;7.88;;;21.70;34.40;;;;;;5029211;28;20371;-57
2022/03/11 20:59:11;;;;;;;34.47;13.57;;;21.60;34.40;;;;;;5026735;28;20036;-52
2022/03/11 21:01:37;;;;;;;35.27;13.93;;;21.60;30.80;;;;;;5026410;28;20447;-61
2022/03/11 21:04:04;;;;;;;31.27;11.38;;;20.90;28.00;;;;;;5027766;28;20044;-59
2022/03/11 21:06:29;;;;;;;25.52;11.75;;;20.70;29.20;;;;;;5030721;28;20107;-56
2022/03/11 21:08:55;;;;;;;28.50;11.23;;;20.90;29.80;;;;;;5030710;28;20124;-61
2022/03/11 21:11:22;;;;;;;29.73;10.90;;;21.10;30.30;;;;;;5033997;28;20041;-60
2022/03/11 21:13:49;;;;;;;25.48;10.13;;;21.30;30.40;;;;;;5028917;28;20539;-55
2022/03/11 21:16:16;;;;;;;28.15;9.75;;;21.40;30.90;;;;;;5023774;28;20043;-58
2022/03/11 21:18:42;;;;;;;20.75;9.18;;;21.50;31.10;;;;;;5024646;28;20045;-61
2022/03/11 21:21:13;;;;;;;22.35;9.57;;;21.50;31.10;;;;;;5026510;28;20072;-59
2022/03/11 21:23:40;;;;;;;18.90;8.30;;;21.50;31.20;;;;;;5031644;28;20029;-59
2022/03/11 21:26:07;;;;;;;25.98;9.38;;;21.60;31.10;;;;;;5023044;28;20532;-59
2022/03/11 21:28:33;;;;;;;21.20;8.98;;;21.60;31.00;;;;;;5026090;28;20041;-61
2022/03/11 21:30:59;;;;;;;17.35;8.30;;;21.60;31.00;;;;;;5022422;28;20390;-60
2022/03/11 21:33:25;;;;;;;19.90;8.68;;;21.60;31.00;;;;;;5025537;28;20437;-61
2022/03/11 21:35:51;;;;;;;20.73;8.27;;;21.70;30.90;;;;;;5025460;28;20026;-61
2022/03/11 21:38:16;;;;;;;21.58;8.68;;;21.70;30.90;;;;;;5027382;28;20033;-60
2022/03/11 21:40:42;;;;;;;20.58;8.48;;;21.70;30.70;;;;;;5027399;28;20105;-61
2022/03/11 21:43:09;;;;;;;16.00;7.45;;;21.70;30.70;;;;;;5033098;28;20035;-62
2022/03/11 21:45:35;;;;;;;15.90;8.13;;;21.70;30.60;;;;;;5029782;28;20033;-62
2022/03/11 21:48:01;;;;;;;16.80;7.68;;;21.70;30.60;;;;;;5026206;28;20021;-62
2022/03/11 21:50:27;;;;;;;17.58;7.75;;;21.70;30.50;;;;;;5026856;28;20036;-60
2022/03/11 21:52:53;;;;;;;16.42;7.13;;;21.70;30.40;;;;;;5031745;28;20021;-60
2022/03/11 21:55:18;;;;;;;17.58;6.95;;;21.70;30.40;;;;;;5025636;28;20508;-61
2022/03/11 21:57:44;;;;;;;20.65;7.80;;;21.80;30.30;;;;;;5028270;28;20068;-56
